Time;durP1;ratioP1;P1;durP2;ratioP2;P2;SDS_P1;SDS_P2;PMS_P1;PMS_P2;Temp;Humidity;BMP_temperature;BMP_pressure;BME280_temperature;BME280_humidity;BME280_pressure;Samples;Min_cycle;Max_cycle;Signal;HPM_P1;HPM_P2
2023/06/01 00:01:46;;;;;;;11.95;6.88;;;;;;;13.09;100.00;94760.56;5131719;27;20523;-78
2023/06/01 00:04:14;;;;;;;16.05;6.82;;;;;;;13.14;100.00;94768.47;5131537;27;20205;-78
2023/06/01 00:06:40;;;;;;;12.48;7.05;;;;;;;13.03;100.00;94772.78;5131832;27;20201;-77
2023/06/01 00:09:08;;;;;;;10.55;5.95;;;;;;;13.04;100.00;94775.19;5131788;27;20212;-77
2023/06/01 00:11:36;;;;;;;8.43;5.82;;;;;;;12.95;100.00;94769.06;5131712;27;20209;-77
2023/06/01 00:14:03;;;;;;;9.70;6.15;;;;;;;13.04;100.00;94769.72;5131495;27;20244;-77
2023/06/01 00:16:31;;;;;;;8.90;6.45;;;;;;;13.12;100.00;94765.31;5130376;27;20201;-77
2023/06/01 00:19:00;;;;;;;11.82;6.35;;;;;;;13.15;100.00;94760.00;5131800;27;20295;-77
2023/06/01 00:21:27;;;;;;;7.88;5.63;;;;;;;13.14;100.00;94768.47;5131781;27;20216;-77
2023/06/01 00:23:54;;;;;;;8.73;6.22;;;;;;;13.11;100.00;94763.75;5131722;27;20201;-77
2023/06/01 00:26:21;;;;;;;10.70;6.00;;;;;;;13.11;100.00;94769.19;5131588;27;20205;-77
2023/06/01 00:28:50;;;;;;;10.70;6.13;;;;;;;13.09;100.00;94760.56;5131289;27;20296;-77
2023/06/01 00:31:17;;;;;;;13.77;6.03;;;;;;;13.05;100.00;94771.31;5130989;27;20236;-77
2023/06/01 00:33:43;;;;;;;9.52;6.18;;;;;;;13.09;100.00;94776.88;5131230;27;20243;-77
2023/06/01 00:36:10;;;;;;;12.32;6.90;;;;;;;13.08;100.00;94775.28;5131009;27;20212;-77
2023/06/01 00:38:37;;;;;;;7.85;5.65;;;;;;;13.00;100.00;94773.47;5131517;27;20204;-77
2023/06/01 00:41:05;;;;;;;14.18;7.05;;;;;;;12.89;100.00;94766.88;5131016;27;20227;-77
2023/06/01 00:43:32;;;;;;;12.38;6.45;;;;;;;12.80;100.00;94762.34;5130529;27;20212;-78
2023/06/01 00:46:01;;;;;;;14.68;5.97;;;;;;;12.86;100.00;94767.56;5130115;27;20292;-78
2023/06/01 00:48:27;;;;;;;8.77;5.97;;;;;;;12.90;100.00;94763.03;5130512;27;20280;-77
2023/06/01 00:50:56;;;;;;;8.98;6.03;;;;;;;12.82;100.00;94768.25;5130788;27;20201;-77
2023/06/01 00:53:24;;;;;;;8.70;6.03;;;;;;;12.89;100.00;94777.75;5130505;27;20297;-78
2023/06/01 00:55:51;;;;;;;9.55;6.03;;;;;;;12.83;100.00;94769.06;5130514;27;20644;-77
2023/06/01 00:58:18;;;;;;;10.93;6.05;;;;;;;12.78;100.00;94771.97;5130734;27;20204;-77
2023/06/01 01:00:47;;;;;;;12.07;6.15;;;;;;;12.79;100.00;94768.13;5129869;27;20209;-77
2023/06/01 01:03:17;;;;;;;11.32;6.20;;;;;;;12.80;100.00;94775.94;5130211;27;20228;-76
2023/06/01 01:05:44;;;;;;;8.60;6.30;;;;;;;12.73;100.00;94764.81;5130208;27;20620;-77
2023/06/01 01:08:18;;;;;;;8.63;6.25;;;;;;;12.71;100.00;94769.78;5131114;27;20282;-77
2023/06/01 01:10:53;;;;;;;10.00;6.40;;;;;;;12.63;100.00;94770.69;5130398;27;20662;-77
2023/06/01 01:13:24;;;;;;;12.32;6.82;;;;;;;12.62;100.00;94763.69;5130479;27;20215;-77
2023/06/01 01:15:57;;;;;;;12.25;6.25;;;;;;;12.69;100.00;94772.09;5130328;27;20201;-76
2023/06/01 01:18:32;;;;;;;7.90;5.50;;;;;;;12.69;100.00;94769.38;5130489;27;20204;-77
2023/06/01 01:21:21;;;;;;;8.20;5.85;;;;;;;12.71;100.00;94771.75;5130310;27;20287;-77
2023/06/01 01:24:06;;;;;;;8.32;5.70;;;;;;;12.53;100.00;94779.28;5130443;27;20647;-76
2023/06/01 01:26:47;;;;;;;14.40;6.40;;;;;;;12.34;100.00;94779.00;5130143;27;20293;-77
2023/06/01 01:29:17;;;;;;;9.05;5.85;;;;;;;12.32;100.00;94781.25;5130703;27;20205;-77
2023/06/01 01:31:46;;;;;;;8.82;5.93;;;;;;;12.41;100.00;94782.78;5129816;27;20745;-78
2023/06/01 01:34:13;;;;;;;12.98;7.15;;;;;;;12.58;100.00;94779.06;5130584;27;20315;-76
2023/06/01 01:36:41;;;;;;;13.77;5.97;;;;;;;12.73;100.00;94775.69;5130118;27;20200;-75
2023/06/01 01:39:08;;;;;;;9.75;6.70;;;;;;;12.84;100.00;94784.22;5130400;27;20219;-76
2023/06/01 01:41:34;;;;;;;13.80;6.57;;;;;;;12.97;100.00;94779.59;5129892;27;20231;-76
2023/06/01 01:44:02;;;;;;;9.77;6.63;;;;;;;13.04;100.00;94787.97;5130586;27;20205;-75
2023/06/01 01:46:33;;;;;;;12.23;6.75;;;;;;;13.08;100.00;94780.72;5130290;27;20254;-76
2023/06/01 01:49:10;;;;;;;13.02;7.00;;;;;;;13.12;100.00;94776.19;5130682;27;20208;-76
2023/06/01 01:51:44;;;;;;;9.85;6.60;;;;;;;13.12;100.00;94779.69;5130210;27;20200;-77
2023/06/01 01:54:12;;;;;;;10.93;6.25;;;;;;;13.03;100.00;94775.50;5130297;28;20216;-77
2023/06/01 01:56:39;;;;;;;9.07;6.30;;;;;;;13.04;100.00;94775.19;5130306;28;20200;-75
2023/06/01 01:59:06;;;;;;;10.98;6.28;;;;;;;13.04;100.00;94774.38;5130377;28;20254;-77
2023/06/01 02:01:35;;;;;;;13.30;6.88;;;;;;;13.02;100.00;94774.72;5130361;28;20211;-76
2023/06/01 02:04:03;;;;;;;16.73;6.50;;;;;;;12.94;100.00;94777.53;5130256;28;20205;-76
2023/06/01 02:06:30;;;;;;;11.95;6.50;;;;;;;12.85;100.00;94777.63;5130474;28;20548;-76
2023/06/01 02:08:57;;;;;;;13.20;7.30;;;;;;;12.77;100.00;94782.06;5131224;28;20220;-76
2023/06/01 02:11:24;;;;;;;12.75;7.07;;;;;;;12.69;100.00;94782.97;5129864;28;20205;-76
2023/06/01 02:13:51;;;;;;;9.65;6.30;;;;;;;12.68;100.00;94783.28;5129573;28;20237;-77
2023/06/01 02:16:18;;;;;;;11.13;6.60;;;;;;;12.66;100.00;94785.53;5129587;28;20528;-75
2023/06/01 02:18:46;;;;;;;11.57;5.80;;;;;;;12.55;100.00;94779.75;5129618;28;20204;-75
2023/06/01 02:21:14;;;;;;;11.75;6.57;;;;;;;12.55;100.00;94785.19;5129315;28;20205;-77
2023/06/01 02:23:42;;;;;;;12.25;6.30;;;;;;;12.59;100.00;94786.09;5129504;28;20204;-75
2023/06/01 02:26:10;;;;;;;10.38;6.63;;;;;;;12.64;100.00;94790.53;5129438;28;20205;-76
2023/06/01 02:28:38;;;;;;;7.68;5.43;;;;;;;12.61;100.00;94791.97;5129754;28;20292;-75
2023/06/01 02:31:05;;;;;;;8.88;6.38;;;;;;;12.60;100.00;94790.38;5129153;27;20284;-75
2023/06/01 02:33:32;;;;;;;11.38;6.53;;;;;;;12.60;100.00;94789.59;5129623;28;20772;-75
2023/06/01 02:36:01;;;;;;;9.77;5.95;;;;;;;12.53;100.00;94782.00;5129406;28;20677;-76
2023/06/01 02:38:28;;;;;;;10.85;6.68;;;;;;;12.45;100.00;94786.38;5116087;27;20217;-75
2023/06/01 02:40:54;;;;;;;10.75;7.30;;;;;;;12.39;100.00;94787.75;5132720;27;20649;-77
2023/06/01 02:43:21;;;;;;;10.77;6.50;;;;;;;12.40;100.00;94788.53;5133651;27;20208;-76
2023/06/01 02:45:48;;;;;;;14.65;6.13;;;;;;;12.44;100.00;94792.16;5133030;27;20663;-75
2023/06/01 02:48:15;;;;;;;13.77;6.68;;;;;;;12.42;100.00;94792.50;5133125;27;20668;-77
2023/06/01 02:50:42;;;;;;;10.10;6.47;;;;;;;12.46;100.00;94793.41;5132785;27;20197;-75
2023/06/01 02:53:10;;;;;;;9.90;6.47;;;;;;;12.71;100.00;94794.25;5132937;27;20687;-77
2023/06/01 02:55:37;;;;;;;14.13;6.97;;;;;;;12.72;100.00;94790.41;5133122;27;20205;-76
2023/06/01 02:58:04;;;;;;;11.90;6.88;;;;;;;12.61;100.00;94794.69;5133601;27;20197;-76
2023/06/01 03:00:31;;;;;;;10.55;6.88;;;;;;;12.48;100.00;94790.34;5128270;27;20205;-76
2023/06/01 03:02:58;;;;;;;10.60;6.75;;;;;;;12.53;100.00;94792.88;5132319;27;20727;-76
2023/06/01 03:05:25;;;;;;;10.43;6.60;;;;;;;12.53;100.00;94792.88;5132353;27;20239;-76
2023/06/01 03:07:52;;;;;;;8.70;6.20;;;;;;;12.43;100.00;94793.31;5133026;27;20201;-77
2023/06/01 03:10:20;;;;;;;12.10;6.35;;;;;;;12.45;100.00;94793.75;5132767;27;20604;-76
2023/06/01 03:12:47;;;;;;;8.55;6.20;;;;;;;12.53;100.00;94797.50;5132380;27;20690;-76
2023/06/01 03:15:15;;;;;;;9.57;5.55;;;;;;;12.75;100.00;94799.81;5132585;27;20224;-77
2023/06/01 03:17:42;;;;;;;9.57;6.20;;;;;;;12.89;100.00;94788.63;5132912;27;20204;-77
2023/06/01 03:20:14;;;;;;;9.55;6.60;;;;;;;13.01;100.00;94792.16;5132819;27;20216;-77
2023/06/01 03:22:42;;;;;;;11.05;6.95;;;;;;;13.56;100.00;94795.47;5132375;27;20205;-77
2023/06/01 03:25:11;;;;;;;12.50;6.75;;;;;;;13.78;100.00;94798.53;5132258;27;20677;-77
2023/06/01 03:27:39;;;;;;;11.02;7.63;;;;;;;13.93;100.00;94802.47;5132780;27;20212;-77
2023/06/01 03:30:09;;;;;;;18.90;7.63;;;;;;;14.09;100.00;94800.59;5132350;27;20204;-77
2023/06/01 03:32:37;;;;;;;9.52;6.68;;;;;;;13.97;100.00;94795.16;5132341;27;20258;-77
2023/06/01 03:35:04;;;;;;;9.80;6.80;;;;;;;14.54;100.00;94796.81;5132608;27;20233;-74
2023/06/01 03:37:31;;;;;;;12.02;7.28;;;;;;;15.52;100.00;94792.28;5132498;27;20281;-75
2023/06/01 03:39:58;;;;;;;13.95;7.22;;;;;;;16.39;99.77;94785.63;5132116;27;20728;-75
2023/06/01 03:42:25;;;;;;;11.13;8.02;;;;;;;17.05;94.98;94782.59;5132353;27;20595;-75
2023/06/01 03:44:53;;;;;;;10.50;7.65;;;;;;;17.64;90.83;94773.00;5131777;27;20202;-75
2023/06/01 03:47:20;;;;;;;9.60;5.35;;;;;;;18.43;82.76;94769.38;5132185;27;20205;-75
2023/06/01 03:49:47;;;;;;;6.05;4.90;;;;;;;19.14;82.47;94781.91;5132148;27;20207;-75
2023/06/01 03:52:16;;;;;;;7.63;5.65;;;;;;;19.93;75.93;94771.56;5131528;27;20726;-75
2023/06/01 03:54:43;;;;;;;9.93;6.15;;;;;;;20.78;74.68;94763.69;5132090;27;20258;-75
2023/06/01 03:57:10;;;;;;;7.63;6.35;;;;;;;21.16;72.97;94776.78;5132050;27;20201;-75
2023/06/01 03:59:37;;;;;;;8.13;6.20;;;;;;;21.02;72.53;94776.75;5131941;27;20197;-75
2023/06/01 04:02:08;;;;;;;9.07;6.45;;;;;;;21.72;73.17;94778.03;5131409;27;20656;-75
2023/06/01 04:04:35;;;;;;;9.20;7.07;;;;;;;21.69;72.27;94778.03;5131865;27;20308;-75
2023/06/01 04:07:02;;;;;;;13.35;7.70;;;;;;;21.96;71.15;94785.47;5131567;27;20296;-75
2023/06/01 04:09:29;;;;;;;8.23;7.38;;;;;;;22.55;70.16;94782.97;5131654;27;20566;-75
2023/06/01 04:11:56;;;;;;;8.30;7.43;;;;;;;22.99;69.04;94778.84;5131268;27;20648;-75
2023/06/01 04:14:23;;;;;;;11.77;7.55;;;;;;;23.07;66.58;94777.66;5131309;27;20293;-75
2023/06/01 04:16:50;;;;;;;10.85;8.00;;;;;;;23.93;62.03;94775.81;5131175;27;20212;-76
2023/06/01 04:19:18;;;;;;;8.98;7.95;;;;;;;24.51;60.59;94765.75;5130625;27;20274;-76
2023/06/01 04:21:45;;;;;;;9.95;8.10;;;;;;;23.88;60.76;94781.03;5131028;27;20272;-76
2023/06/01 04:24:12;;;;;;;10.82;8.30;;;;;;;22.85;63.30;94778.94;5131512;27;20205;-76
2023/06/01 04:26:39;;;;;;;10.35;8.10;;;;;;;21.87;67.26;94782.31;5131071;27;20209;-76
2023/06/01 04:29:05;;;;;;;11.57;8.75;;;;;;;20.51;69.04;94788.78;5131387;27;20250;-76
2023/06/01 04:31:34;;;;;;;10.50;8.77;;;;;;;20.20;73.61;94792.16;5131379;27;20583;-76
2023/06/01 04:34:01;;;;;;;15.02;10.07;;;;;;;19.55;75.06;94801.13;5131489;27;20232;-76
2023/06/01 04:36:30;;;;;;;13.27;9.85;;;;;;;19.71;74.74;94800.84;5130751;27;20273;-76
2023/06/01 04:38:57;;;;;;;14.70;10.88;;;;;;;19.27;77.01;94806.38;5131331;27;20209;-76
2023/06/01 04:41:24;;;;;;;12.57;10.50;;;;;;;18.56;80.77;94811.06;5130348;27;20287;-75
2023/06/01 04:43:52;;;;;;;13.20;9.88;;;;;;;18.65;81.06;94801.41;5131176;27;20209;-75
2023/06/01 04:46:20;;;;;;;13.98;9.82;;;;;;;19.15;79.25;94812.91;5130168;27;20266;-75
2023/06/01 04:48:47;;;;;;;15.15;10.40;;;;;;;19.76;77.11;94803.25;5130671;27;20258;-75
2023/06/01 04:51:19;;;;;;;13.90;9.82;;;;;;;20.76;73.57;94790.84;5131039;27;20283;-75
2023/06/01 04:53:51;;;;;;;13.45;9.68;;;;;;;21.25;71.59;94799.25;5130324;27;20228;-75
2023/06/01 04:56:20;;;;;;;13.43;8.75;;;;;;;21.58;69.93;94809.16;5118194;27;20636;-75
2023/06/01 04:58:48;;;;;;;14.00;9.63;;;;;;;21.43;69.36;94802.06;5130675;27;20682;-75
2023/06/01 05:01:19;;;;;;;9.57;8.57;;;;;;;21.92;68.53;94792.97;5130324;27;20205;-73
2023/06/01 05:03:47;;;;;;;14.18;9.18;;;;;;;23.78;64.29;94804.03;5130051;27;20216;-75
2023/06/01 05:06:15;;;;;;;10.10;8.00;;;;;;;25.46;57.51;94785.88;5130842;27;20644;-74
2023/06/01 05:08:47;;;;;;;9.43;7.75;;;;;;;25.01;55.55;94790.13;5131088;27;20623;-75
2023/06/01 05:11:14;;;;;;;13.32;7.93;;;;;;;24.72;58.04;94801.53;5130692;27;20205;-73
2023/06/01 05:13:43;;;;;;;10.98;8.30;;;;;;;23.97;57.95;94804.25;5130537;27;20261;-73
2023/06/01 05:16:10;;;;;;;12.25;9.68;;;;;;;22.44;62.63;94811.81;5130683;27;20709;-73
2023/06/01 05:18:36;;;;;;;11.15;9.18;;;;;;;21.20;65.80;94813.41;5130380;27;20207;-74
2023/06/01 05:21:04;;;;;;;12.82;9.73;;;;;;;21.03;67.78;94811.41;5130675;27;20254;-73
2023/06/01 05:23:32;;;;;;;13.10;9.90;;;;;;;20.76;69.64;94812.88;5126479;27;20588;-74
2023/06/01 05:26:02;;;;;;;14.18;10.10;;;;;;;21.61;67.01;94813.84;5120929;27;20715;-74
2023/06/01 05:28:30;;;;;;;14.38;10.23;;;;;;;21.32;67.71;94805.97;5130911;27;20217;-73
2023/06/01 05:30:57;;;;;;;19.85;10.40;;;;;;;21.11;68.51;94807.47;5130115;27;20228;-74
2023/06/01 05:33:23;;;;;;;12.85;10.00;;;;;;;21.33;68.78;94802.00;5129941;27;20201;-74
2023/06/01 05:35:50;;;;;;;12.88;9.27;;;;;;;21.68;67.44;94802.06;5130166;27;20213;-74
2023/06/01 05:38:17;;;;;;;13.98;9.50;;;;;;;20.96;68.21;94805.84;5116304;27;20201;-74
2023/06/01 05:40:44;;;;;;;14.35;9.65;;;;;;;20.81;69.98;94805.03;5129804;27;20211;-74
2023/06/01 05:43:12;;;;;;;13.82;10.27;;;;;;;21.88;65.72;94802.41;5130089;27;20808;-74
2023/06/01 05:45:39;;;;;;;12.57;9.65;;;;;;;21.18;68.28;94801.97;5129841;27;20229;-74
2023/06/01 05:48:06;;;;;;;14.98;10.48;;;;;;;22.04;64.89;94796.53;5130158;27;20205;-74
2023/06/01 05:50:33;;;;;;;13.07;10.30;;;;;;;22.44;65.55;94798.78;5129675;27;20201;-74
2023/06/01 05:52:59;;;;;;;13.68;9.90;;;;;;;24.82;57.46;94793.50;5129631;27;20275;-74
2023/06/01 05:55:26;;;;;;;12.00;9.88;;;;;;;25.09;55.87;94794.34;5130111;28;20223;-74
2023/06/01 05:57:53;;;;;;;14.43;10.80;;;;;;;26.04;54.00;94791.34;5130373;28;20667;-74
2023/06/01 06:00:22;;;;;;;17.75;10.98;;;;;;;27.04;52.68;94784.72;5129596;28;20757;-74
2023/06/01 06:02:49;;;;;;;14.32;10.68;;;;;;;25.82;53.67;94790.91;5128983;28;20209;-74
2023/06/01 06:05:15;;;;;;;14.80;10.48;;;;;;;24.64;56.53;94802.78;5128975;28;20228;-74
2023/06/01 06:07:42;;;;;;;15.82;11.25;;;;;;;23.02;62.25;94800.16;5129030;28;20714;-75
2023/06/01 06:10:10;;;;;;;15.55;11.38;;;;;;;22.72;62.85;94805.41;5129078;28;20205;-75
2023/06/01 06:12:37;;;;;;;15.77;11.30;;;;;;;22.38;64.40;94803.16;5129270;27;20678;-75
2023/06/01 06:15:05;;;;;;;17.60;12.13;;;;;;;21.22;67.35;94808.31;5133217;27;20205;-75
2023/06/01 06:17:33;;;;;;;15.65;11.70;;;;;;;22.10;65.48;94808.75;5134268;27;20226;-75
2023/06/01 06:20:00;;;;;;;14.18;11.48;;;;;;;22.49;64.72;94812.19;5133722;27;20635;-74
2023/06/01 06:22:27;;;;;;;21.10;11.85;;;;;;;24.04;59.70;94798.66;5133983;27;20240;-75
2023/06/01 06:24:53;;;;;;;15.23;11.80;;;;;;;23.98;58.80;94808.59;5133601;27;20236;-75
2023/06/01 06:27:20;;;;;;;18.05;12.40;;;;;;;24.67;58.29;94807.50;5133983;27;20269;-75
2023/06/01 06:29:47;;;;;;;16.23;12.13;;;;;;;25.57;56.02;94790.47;5133602;27;20242;-75
2023/06/01 06:32:14;;;;;;;15.32;11.77;;;;;;;26.96;52.45;94794.41;5133574;27;20207;-75
2023/06/01 06:34:42;;;;;;;18.95;12.57;;;;;;;27.59;49.46;94801.38;5133804;27;20208;-73
2023/06/01 06:37:10;;;;;;;15.05;11.80;;;;;;;26.74;50.96;94800.38;5133479;27;20224;-73
2023/06/01 06:39:38;;;;;;;17.27;12.88;;;;;;;27.90;50.16;94795.47;5133509;27;20679;-75
2023/06/01 06:42:06;;;;;;;14.90;12.75;;;;;;;28.70;46.87;94796.56;5133577;27;20215;-74
2023/06/01 06:44:33;;;;;;;16.00;13.25;;;;;;;27.08;50.78;94800.09;5133594;27;20228;-74
2023/06/01 06:47:00;;;;;;;17.02;13.75;;;;;;;26.43;53.49;94801.75;5133647;27;20217;-74
2023/06/01 06:49:27;;;;;;;21.35;13.90;;;;;;;27.09;50.59;94789.75;5133391;27;20233;-75
2023/06/01 06:51:55;;;;;;;18.52;13.70;;;;;;;27.19;50.97;94794.31;5133116;27;20229;-74
2023/06/01 06:54:22;;;;;;;17.05;13.55;;;;;;;25.56;54.73;94800.03;5133192;27;20197;-74
2023/06/01 06:56:49;;;;;;;21.27;14.75;;;;;;;24.76;56.61;94805.03;5133508;27;20535;-74
2023/06/01 06:59:16;;;;;;;19.80;15.05;;;;;;;25.96;54.02;94793.47;5133348;27;20583;-73
2023/06/01 07:01:43;;;;;;;21.40;14.18;;;;;;;27.07;51.40;94789.38;5132515;27;20963;-74
2023/06/01 07:04:09;;;;;;;19.10;13.90;;;;;;;29.09;47.47;94789.16;5133170;27;20634;-73
2023/06/01 07:06:37;;;;;;;21.27;15.20;;;;;;;28.80;47.39;94794.75;5132471;27;20568;-72
2023/06/01 07:09:07;;;;;;;22.30;13.65;;;;;;;28.10;49.52;94798.94;5132388;27;20201;-73
2023/06/01 07:11:34;;;;;;;19.15;15.15;;;;;;;27.73;48.60;94785.56;5132135;27;20212;-74
2023/06/01 07:14:01;;;;;;;22.05;14.20;;;;;;;29.16;46.07;94789.72;5119575;27;20212;-74
2023/06/01 07:16:29;;;;;;;19.67;14.88;;;;;;;29.40;45.25;94787.41;5132645;27;20548;-74
2023/06/01 07:18:56;;;;;;;19.77;15.32;;;;;;;27.07;50.00;94806.06;5132644;27;20201;-74
2023/06/01 07:21:22;;;;;;;17.08;14.88;;;;;;;26.90;50.46;94791.31;5132351;27;20209;-76
2023/06/01 07:23:49;;;;;;;25.60;15.82;;;;;;;26.08;52.64;94792.84;5133107;27;20632;-76
2023/06/01 07:26:18;;;;;;;21.85;15.50;;;;;;;26.63;51.78;94787.91;5132205;27;20225;-75
2023/06/01 07:28:45;;;;;;;20.98;16.00;;;;;;;25.95;53.53;94791.09;5132918;27;20299;-74
2023/06/01 07:31:11;;;;;;;21.13;16.13;;;;;;;25.93;53.25;94785.97;5132160;27;20558;-74
2023/06/01 07:33:38;;;;;;;23.05;15.45;;;;;;;27.10;51.03;94777.41;5132755;27;20205;-75
2023/06/01 07:36:07;;;;;;;21.42;14.55;;;;;;;27.84;50.47;94774.94;5132728;27;20332;-76
2023/06/01 07:38:36;;;;;;;16.27;13.23;;;;;;;27.45;50.57;94786.97;5132771;27;20213;-75
2023/06/01 07:41:03;;;;;;;19.30;14.05;;;;;;;27.87;49.14;94774.06;5132056;27;20201;-75
2023/06/01 07:43:31;;;;;;;16.65;13.15;;;;;;;28.12;47.89;94774.22;5132446;27;20689;-75
2023/06/01 07:45:58;;;;;;;21.17;16.27;;;;;;;24.99;54.46;94784.19;5118222;27;20608;-76
2023/06/01 07:48:25;;;;;;;21.92;17.00;;;;;;;24.01;58.39;94782.88;5132325;27;20204;-77
2023/06/01 07:50:52;;;;;;;21.83;16.75;;;;;;;24.43;59.07;94787.22;5131406;27;20872;-76
2023/06/01 07:53:19;;;;;;;24.05;17.30;;;;;;;24.65;57.08;94782.22;5132274;27;20245;-76
2023/06/01 07:55:48;;;;;;;24.92;17.88;;;;;;;25.20;56.21;94770.03;5131743;27;20563;-76
2023/06/01 07:58:15;;;;;;;22.75;16.92;;;;;;;25.93;54.09;94769.31;5132736;27;20658;-76
2023/06/01 08:00:44;;;;;;;22.63;17.42;;;;;;;27.21;50.52;94764.03;5131605;27;20261;-77
2023/06/01 08:03:10;;;;;;;22.58;15.45;;;;;;;27.86;48.83;94767.72;5132397;27;20205;-76
2023/06/01 08:05:38;;;;;;;18.55;14.80;;;;;;;26.84;50.72;94765.22;5132088;27;20242;-76
2023/06/01 08:08:05;;;;;;;18.58;15.02;;;;;;;26.41;50.80;94770.84;5132035;27;20201;-76
2023/06/01 08:10:31;;;;;;;22.35;15.70;;;;;;;25.92;53.46;94767.75;5131945;27;20209;-77
2023/06/01 08:12:58;;;;;;;20.20;14.70;;;;;;;26.16;52.50;94755.41;5131708;27;20207;-76
2023/06/01 08:15:26;;;;;;;18.95;13.77;;;;;;;26.45;52.49;94760.44;5131875;27;20208;-75
2023/06/01 08:17:54;;;;;;;26.05;16.10;;;;;;;26.67;51.55;94761.59;5131763;27;20287;-76
2023/06/01 08:20:22;;;;;;;24.58;16.88;;;;;;;26.76;53.33;94747.91;5131644;27;20211;-77
2023/06/01 08:22:50;;;;;;;24.67;18.00;;;;;;;26.38;54.23;94752.25;5131784;27;20253;-75
2023/06/01 08:25:17;;;;;;;27.30;19.77;;;;;;;26.49;52.78;94756.41;5131701;27;20320;-76
2023/06/01 08:27:44;;;;;;;25.25;17.77;;;;;;;26.08;53.51;94751.19;5131217;27;20208;-75
2023/06/01 08:30:12;;;;;;;20.58;16.73;;;;;;;26.73;50.87;94743.22;5131592;27;20228;-75
2023/06/01 08:32:39;;;;;;;20.98;15.27;;;;;;;27.82;49.34;94738.38;5131484;27;20201;-75
2023/06/01 08:35:09;;;;;;;23.02;15.10;;;;;;;28.01;49.50;94728.38;5131615;27;20241;-76
2023/06/01 08:37:36;;;;;;;22.02;15.07;;;;;;;28.04;48.06;94731.03;5130426;27;20205;-76
2023/06/01 08:40:07;;;;;;;19.77;14.52;;;;;;;27.80;49.76;94729.69;5131204;27;20655;-76
2023/06/01 08:42:44;;;;;;;23.10;14.77;;;;;;;27.85;48.93;94734.75;5131070;27;20228;-75
2023/06/01 08:45:13;;;;;;;17.67;13.20;;;;;;;27.86;49.69;94728.72;5131445;27;20246;-76
2023/06/01 08:47:41;;;;;;;18.60;14.27;;;;;;;27.66;49.58;94733.59;5131368;27;20208;-74
2023/06/01 08:50:11;;;;;;;23.05;15.40;;;;;;;27.26;51.68;94724.59;5131073;27;20201;-75
2023/06/01 08:52:39;;;;;;;18.83;14.60;;;;;;;27.20;52.16;94721.53;5130409;27;20323;-75
2023/06/01 08:55:07;;;;;;;20.42;14.10;;;;;;;27.36;50.60;94718.00;5130182;27;20721;-75
2023/06/01 08:57:34;;;;;;;23.25;14.45;;;;;;;27.09;49.79;94714.66;5129815;27;20597;-76
2023/06/01 09:00:00;;;;;;;23.50;14.30;;;;;;;26.41;52.18;94710.50;5129909;27;20197;-75
2023/06/01 09:02:28;;;;;;;22.95;13.25;;;;;;;25.82;53.94;94715.97;5130640;27;20213;-73
2023/06/01 09:04:55;;;;;;;17.70;12.90;;;;;;;24.87;56.13;94713.44;5130719;27;20200;-74
2023/06/01 09:07:23;;;;;;;17.40;12.50;;;;;;;24.22;56.95;94720.16;5130756;27;20212;-75
2023/06/01 09:09:51;;;;;;;16.23;12.60;;;;;;;24.25;56.28;94719.38;5130500;27;20209;-75
2023/06/01 09:12:25;;;;;;;15.50;12.13;;;;;;;24.99;54.29;94712.91;5130563;27;20201;-74
2023/06/01 09:15:07;;;;;;;17.80;11.73;;;;;;;25.43;53.87;94709.03;5130725;27;20211;-74
2023/06/01 09:17:34;;;;;;;16.55;11.15;;;;;;;26.09;52.44;94711.13;5130593;27;20209;-75
2023/06/01 09:20:00;;;;;;;15.48;9.77;;;;;;;25.59;52.36;94713.94;5130284;27;20208;-76
2023/06/01 09:22:39;;;;;;;15.93;10.27;;;;;;;25.76;51.84;94706.56;5130386;27;20201;-75
2023/06/01 09:25:06;;;;;;;12.68;8.95;;;;;;;26.39;52.37;94704.59;5130261;27;20651;-77
2023/06/01 09:27:43;;;;;;;11.63;8.48;;;;;;;26.30;50.21;94703.59;5130606;27;20201;-75
2023/06/01 09:30:11;;;;;;;9.95;7.60;;;;;;;26.66;48.99;94698.88;5130275;27;20224;-74
2023/06/01 09:32:38;;;;;;;9.48;7.10;;;;;;;26.74;49.33;94694.75;5129900;27;20216;-75
2023/06/01 09:35:07;;;;;;;9.45;7.10;;;;;;;27.40;48.59;94696.44;5129655;27;20204;-75
2023/06/01 09:37:38;;;;;;;10.80;7.88;;;;;;;27.63;46.21;94692.72;5129989;27;20432;-76
2023/06/01 09:40:17;;;;;;;12.68;6.85;;;;;;;27.82;44.70;94677.91;5130336;27;20200;-74
2023/06/01 09:42:44;;;;;;;9.10;7.00;;;;;;;27.01;44.54;94679.88;5129932;27;20216;-74
2023/06/01 09:45:20;;;;;;;10.13;5.90;;;;;;;27.50;43.01;94677.91;5130302;27;20205;-74
2023/06/01 09:47:47;;;;;;;11.65;6.55;;;;;;;26.86;46.43;94674.63;5129694;27;20201;-75
2023/06/01 09:50:33;;;;;;;8.30;6.97;;;;;;;26.74;45.57;94678.06;5130016;27;20208;-75
2023/06/01 09:53:02;;;;;;;10.75;7.15;;;;;;;27.94;45.25;94670.84;5129563;27;20296;-77
2023/06/01 09:55:28;;;;;;;11.75;7.90;;;;;;;27.71;47.73;94671.06;5129450;28;20212;-75
2023/06/01 09:58:18;;;;;;;12.98;7.78;;;;;;;26.60;49.40;94672.81;5129285;28;20278;-74
2023/06/01 10:00:47;;;;;;;13.18;7.95;;;;;;;26.03;52.35;94679.47;5122704;28;20199;-74
2023/06/01 10:03:14;;;;;;;10.75;6.50;;;;;;;25.25;51.64;94672.50;5121001;28;20205;-75
2023/06/01 10:05:41;;;;;;;7.78;5.53;;;;;;;25.19;48.62;94676.16;5129654;28;20535;-77
2023/06/01 10:08:12;;;;;;;6.15;5.05;;;;;;;24.80;49.11;94669.97;5130011;28;20209;-76
2023/06/01 10:10:39;;;;;;;6.38;4.28;;;;;;;24.78;51.27;94672.38;5129753;28;20299;-74
2023/06/01 10:13:07;;;;;;;6.32;5.00;;;;;;;24.85;49.62;94662.41;5129438;28;20205;-74
2023/06/01 10:15:35;;;;;;;8.90;4.93;;;;;;;25.19;47.27;94662.28;5129670;28;20242;-74
2023/06/01 10:18:03;;;;;;;6.75;4.40;;;;;;;25.92;46.81;94661.47;5129653;28;20609;-74
2023/06/01 10:20:33;;;;;;;5.65;4.53;;;;;;;25.89;45.03;94665.88;5130139;28;20386;-74
2023/06/01 10:23:00;;;;;;;8.40;4.63;;;;;;;26.15;47.43;94659.41;5129427;28;20200;-74
2023/06/01 10:25:31;;;;;;;6.88;4.80;;;;;;;25.83;43.63;94659.25;5129667;28;20304;-74
2023/06/01 10:28:02;;;;;;;8.55;4.53;;;;;;;24.99;46.35;94657.47;5129665;28;20250;-74
2023/06/01 10:30:28;;;;;;;7.30;4.75;;;;;;;24.46;50.08;94669.28;5129654;28;20321;-74
2023/06/01 10:32:55;;;;;;;8.10;5.22;;;;;;;24.51;50.02;94666.03;5129362;28;20220;-74
2023/06/01 10:36:02;;;;;;;7.78;4.25;;;;;;;24.21;50.10;94665.97;5129939;28;20201;-75
2023/06/01 10:38:29;;;;;;;8.55;4.60;;;;;;;23.84;50.58;94664.81;5130185;28;20291;-73
2023/06/01 10:41:28;;;;;;;6.55;4.43;;;;;;;23.79;51.66;94668.03;5129769;28;20209;-74
2023/06/01 10:43:56;;;;;;;7.05;4.53;;;;;;;23.62;51.47;94667.03;5129595;28;20201;-75
2023/06/01 10:46:42;;;;;;;9.68;4.43;;;;;;;23.80;52.49;94655.78;5129674;28;20323;-75
2023/06/01 10:49:09;;;;;;;7.43;4.88;;;;;;;23.85;52.86;94658.09;5129347;28;20249;-74
2023/06/01 10:51:36;;;;;;;5.90;4.53;;;;;;;24.02;51.82;94657.13;5129425;28;20232;-75
2023/06/01 10:54:39;;;;;;;6.32;4.50;;;;;;;24.43;52.88;94650.72;5129216;28;20237;-74
2023/06/01 10:57:23;;;;;;;7.70;4.50;;;;;;;24.82;49.00;94649.38;5124392;28;20245;-75
2023/06/01 11:00:14;;;;;;;5.40;4.50;;;;;;;25.19;49.16;94642.88;5129997;27;20211;-75
2023/06/01 11:02:52;;;;;;;7.65;4.50;;;;;;;24.99;48.65;94640.84;5132850;27;20678;-75
2023/06/01 11:05:48;;;;;;;6.40;4.40;;;;;;;25.43;47.95;94642.47;5132981;27;20230;-75
2023/06/01 11:08:53;;;;;;;8.00;4.95;;;;;;;24.98;49.51;94632.94;5133037;27;20223;-75
2023/06/01 11:11:21;;;;;;;5.50;3.88;;;;;;;25.04;50.05;94631.25;5133352;27;20291;-75
2023/06/01 11:14:08;;;;;;;7.63;4.78;;;;;;;24.85;49.05;94626.38;5133060;27;20280;-75
2023/06/01 11:16:35;;;;;;;7.65;4.13;;;;;;;24.73;50.53;94634.06;5132493;27;20201;-75
2023/06/01 11:19:03;;;;;;;8.50;4.70;;;;;;;24.26;48.78;94632.34;5132416;27;20278;-75
2023/06/01 11:21:35;;;;;;;9.48;4.68;;;;;;;24.16;48.55;94627.69;5132785;27;20589;-74
2023/06/01 11:24:05;;;;;;;10.00;4.55;;;;;;;24.16;49.92;94622.16;5131999;27;20673;-76
2023/06/01 11:26:34;;;;;;;9.80;5.13;;;;;;;23.70;52.06;94623.47;5132554;27;20225;-74
2023/06/01 11:29:06;;;;;;;8.80;5.10;;;;;;;22.94;54.33;94622.59;5132926;27;20201;-76
2023/06/01 11:31:43;;;;;;;7.55;4.13;;;;;;;22.62;55.22;94631.06;5132423;27;20233;-76